Time;durP1;ratioP1;P1;durP2;ratioP2;P2;SDS_P1;SDS_P2;PMS_P1;PMS_P2;Temp;Humidity;BMP_temperature;BMP_pressure;BME280_temperature;BME280_humidity;BME280_pressure;Samples;Min_cycle;Max_cycle;Signal;HPM_P1;HPM_P2
2022/10/01 00:01:58;;;;;;;;;;;10.60;99.90;;;;;;5128406;27;19931;-91
2022/10/01 00:04:25;;;;;;;;;;;10.60;99.90;;;;;;5120831;28;19996;-93
2022/10/01 00:06:51;;;;;;;;;;;10.60;99.90;;;;;;5121701;28;19949;-94
2022/10/01 00:09:16;;;;;;;;;;;10.60;99.90;;;;;;5119120;28;20696;-92
2022/10/01 00:11:42;;;;;;;;;;;10.60;99.90;;;;;;5103206;28;19935;-93
2022/10/01 00:14:09;;;;;;;;;;;10.50;99.90;;;;;;5121002;28;19927;-93
2022/10/01 00:16:35;;;;;;;;;;;10.50;99.90;;;;;;5105013;28;19924;-92
2022/10/01 00:19:00;;;;;;;;;;;10.50;99.90;;;;;;5116750;28;19924;-92
2022/10/01 00:21:28;;;;;;;;;;;10.50;99.90;;;;;;5089271;28;20434;-93
2022/10/01 00:23:54;;;;;;;;;;;10.50;99.90;;;;;;5104386;28;19949;-92
2022/10/01 00:26:22;;;;;;;;;;;10.50;99.90;;;;;;5139119;27;19948;-93
2022/10/01 00:28:51;;;;;;;;;;;10.50;99.90;;;;;;5102146;28;19924;-93
2022/10/01 00:31:17;;;;;;;;;;;10.50;99.90;;;;;;5130460;27;19928;-93
2022/10/01 00:33:42;;;;;;;;;;;10.50;99.90;;;;;;5100879;28;19955;-93
2022/10/01 00:36:09;;;;;;;;;;;10.50;99.90;;;;;;5110110;28;20026;-92
2022/10/01 00:38:35;;;;;;;;;;;10.50;99.90;;;;;;5136710;27;19924;-92
2022/10/01 00:41:01;;;;;;;;;;;10.40;99.90;;;;;;5136098;27;19981;-92
2022/10/01 00:43:29;;;;;;;;;;;10.40;99.90;;;;;;5104471;28;20610;-92
2022/10/01 00:45:56;;;;;;;;;;;10.50;99.90;;;;;;5103007;28;20383;-92
2022/10/01 00:48:22;;;;;;;;;;;10.40;99.90;;;;;;5124674;27;19928;-95
2022/10/01 00:50:49;;;;;;;;;;;10.40;99.90;;;;;;5097578;28;19923;-92
2022/10/01 00:53:15;;;;;;;;;;;10.40;99.90;;;;;;5098483;28;19946;-92
2022/10/01 00:55:47;;;;;;;;;;;10.40;99.90;;;;;;5103370;28;19924;-92
2022/10/01 00:58:13;;;;;;;;;;;10.40;99.90;;;;;;5101922;28;19987;-92
2022/10/01 01:00:40;;;;;;;;;;;10.40;99.90;;;;;;5100918;28;19928;-91
2022/10/01 01:03:06;;;;;;;;;;;10.40;99.90;;;;;;5102155;28;19936;-92
2022/10/01 01:05:32;;;;;;;;;;;10.40;99.90;;;;;;5118443;28;19924;-92
2022/10/01 01:08:01;;;;;;;;;;;10.40;99.90;;;;;;5118204;28;19924;-92
2022/10/01 01:10:42;;;;;;;;;;;10.40;99.90;;;;;;5107104;28;19942;-92
2022/10/01 01:13:13;;;;;;;;;;;10.40;99.90;;;;;;5092232;28;19924;-93
2022/10/01 01:15:41;;;;;;;;;;;10.40;99.90;;;;;;5099695;28;19928;-91
2022/10/01 01:18:08;;;;;;;;;;;10.40;99.90;;;;;;5094432;28;19936;-94
2022/10/01 01:20:40;;;;;;;;;;;10.40;99.90;;;;;;5104601;28;20295;-94
2022/10/01 01:23:19;;;;;;;;;;;10.30;99.90;;;;;;5132872;28;19924;-92
2022/10/01 01:25:46;;;;;;;;;;;10.30;99.90;;;;;;5118376;28;19924;-92
2022/10/01 01:28:24;;;;;;;;;;;10.30;99.90;;;;;;5132089;28;20410;-92
2022/10/01 01:30:55;;;;;;;;;;;10.40;99.90;;;;;;5119367;28;19930;-93
2022/10/01 01:33:22;;;;;;;;;;;10.40;99.90;;;;;;5134337;28;19924;-92
2022/10/01 01:36:00;;;;;;;;;;;10.30;99.90;;;;;;5104041;28;19980;-92
2022/10/01 01:38:28;;;;;;;;;;;10.30;99.90;;;;;;5101356;28;19925;-92
2022/10/01 01:40:56;;;;;;;;;;;10.30;99.90;;;;;;5108223;28;19923;-93
2022/10/01 01:43:31;;;;;;;;;;;10.30;99.90;;;;;;5095548;28;19968;-93
2022/10/01 01:45:59;;;;;;;;;;;10.30;99.90;;;;;;5103041;28;20458;-93
2022/10/01 01:48:25;;;;;;;;;;;10.30;99.90;;;;;;5099552;28;19944;-92
2022/10/01 01:51:05;;;;;;;;;;;10.30;99.90;;;;;;5101792;28;19924;-94
2022/10/01 01:53:31;;;;;;;;;;;10.30;99.90;;;;;;5119888;28;19931;-92
2022/10/01 01:55:59;;;;;;;;;;;10.30;99.90;;;;;;5118848;28;19932;-92
2022/10/01 01:58:26;;;;;;;;;;;10.30;99.90;;;;;;5097773;28;19923;-93
2022/10/01 02:00:52;;;;;;;;;;;10.30;99.90;;;;;;5140003;27;19991;-93
2022/10/01 02:03:22;;;;;;;;;;;10.30;99.90;;;;;;5107719;28;19924;-92
2022/10/01 02:05:59;;;;;;;;;;;10.30;99.90;;;;;;5133067;27;19924;-93
2022/10/01 02:08:33;;;;;;;;;;;10.30;99.90;;;;;;5102273;28;19967;-92
2022/10/01 02:11:11;;;;;;;;;;;10.30;99.90;;;;;;5134280;27;19924;-92
2022/10/01 02:13:39;;;;;;;;;;;10.30;99.90;;;;;;5118693;28;19934;-92
2022/10/01 02:16:13;;;;;;;;;;;10.20;99.90;;;;;;5123519;28;19992;-93
2022/10/01 02:18:45;;;;;;;;;;;10.30;99.90;;;;;;5143991;27;19924;-93
2022/10/01 02:21:13;;;;;;;;;;;10.20;99.90;;;;;;5103464;28;19939;-92
2022/10/01 02:23:44;;;;;;;;;;;10.30;99.90;;;;;;5109740;28;19963;-93
2022/10/01 02:26:13;;;;;;;;;;;10.20;99.90;;;;;;5124671;28;19927;-93
2022/10/01 02:28:40;;;;;;;;;;;10.20;99.90;;;;;;5123971;28;19931;-92
2022/10/01 02:31:06;;;;;;;;;;;10.30;99.90;;;;;;5126717;27;19924;-93
2022/10/01 02:33:34;;;;;;;;;;;10.30;99.90;;;;;;5139704;27;19931;-92
2022/10/01 02:36:00;;;;;;;;;;;10.30;99.90;;;;;;5123385;28;20010;-94
2022/10/01 02:38:26;;;;;;;;;;;10.30;99.90;;;;;;5120603;28;19924;-92
2022/10/01 02:40:54;;;;;;;;;;;10.30;99.90;;;;;;5098610;28;19946;-92
2022/10/01 02:43:23;;;;;;;;;;;10.30;99.90;;;;;;5090391;27;20356;-92
2022/10/01 02:45:50;;;;;;;;;;;10.30;99.90;;;;;;5132737;27;19924;-92
2022/10/01 02:48:16;;;;;;;;;;;10.30;99.90;;;;;;5103605;28;19924;-93
2022/10/01 02:50:50;;;;;;;;;;;10.30;99.90;;;;;;5115333;28;19924;-93
2022/10/01 02:53:26;;;;;;;;;;;10.40;99.90;;;;;;5101062;28;19924;-93
2022/10/01 02:55:52;;;;;;;;;;;10.30;99.90;;;;;;5108736;27;19963;-93
2022/10/01 02:58:18;;;;;;;;;;;10.40;99.90;;;;;;5087998;28;19932;-93
2022/10/01 03:00:44;;;;;;;;;;;10.30;99.90;;;;;;5115166;28;19967;-94
2022/10/01 03:03:10;;;;;;;;;;;10.30;99.90;;;;;;5140017;27;19924;-92
2022/10/01 03:05:35;;;;;;;;;;;10.40;99.90;;;;;;5137913;27;19924;-94
2022/10/01 03:08:01;;;;;;;;;;;10.40;99.90;;;;;;5143749;27;19924;-94
2022/10/01 03:10:26;;;;;;;;;;;10.40;99.90;;;;;;5097378;28;19990;-93
2022/10/01 03:12:52;;;;;;;;;;;10.40;99.90;;;;;;5086607;28;20350;-94
2022/10/01 03:15:18;;;;;;;;;;;10.40;99.90;;;;;;5107084;28;19927;-93
2022/10/01 03:17:44;;;;;;;;;;;10.40;99.90;;;;;;5106693;28;19923;-93
2022/10/01 03:20:11;;;;;;;;;;;10.40;99.90;;;;;;5121472;27;19924;-91
2022/10/01 03:22:36;;;;;;;;;;;10.40;99.90;;;;;;5128206;27;19991;-92
2022/10/01 03:25:02;;;;;;;;;;;10.40;99.90;;;;;;5112298;28;19928;-92
2022/10/01 03:27:28;;;;;;;;;;;10.50;99.90;;;;;;5138068;27;19950;-91
2022/10/01 03:29:53;;;;;;;;;;;10.40;99.90;;;;;;5134339;27;19923;-91
2022/10/01 03:32:19;;;;;;;;;;;10.50;99.90;;;;;;5120853;27;20463;-92
2022/10/01 03:34:45;;;;;;;;;;;10.50;99.90;;;;;;5085889;28;19924;-92
2022/10/01 03:37:10;;;;;;;;;;;10.50;99.90;;;;;;5122088;28;19987;-91
2022/10/01 03:39:36;;;;;;;;;;;10.50;99.90;;;;;;5092417;28;20363;-92
2022/10/01 03:42:03;;;;;;;;;;;10.50;99.90;;;;;;5112207;28;19924;-89
2022/10/01 03:44:28;;;;;;;;;;;10.50;99.90;;;;;;5130280;27;19924;-91
2022/10/01 03:46:54;;;;;;;;;;;10.50;99.90;;;;;;5083087;28;19924;-92
2022/10/01 03:49:19;;;;;;;;;;;10.50;99.90;;;;;;5101160;28;20007;-90
2022/10/01 03:51:45;;;;;;;;;;;10.50;99.90;;;;;;5156082;27;19924;-90
2022/10/01 03:54:11;;;;;;;;;;;10.50;99.90;;;;;;5115848;28;19927;-90
2022/10/01 03:56:39;;;;;;;;;;;10.50;99.90;;;;;;5099165;27;19927;-91
2022/10/01 03:59:05;;;;;;;;;;;10.50;99.90;;;;;;5114224;28;19948;-90
2022/10/01 04:01:31;;;;;;;;;;;10.50;99.90;;;;;;5097184;28;19993;-91
2022/10/01 04:03:56;;;;;;;;;;;10.50;99.90;;;;;;5099941;28;19928;-91
2022/10/01 04:06:22;;;;;;;;;;;10.50;99.90;;;;;;5080479;28;19928;-90
2022/10/01 04:08:47;;;;;;;;;;;10.50;99.90;;;;;;5098838;27;19923;-90
2022/10/01 04:11:13;;;;;;;;;;;10.50;99.90;;;;;;5083075;28;20019;-91
2022/10/01 04:13:39;;;;;;;;;;;10.50;99.90;;;;;;5106535;28;19998;-92
2022/10/01 04:16:05;;;;;;;;;;;10.60;99.90;;;;;;5136102;27;19930;-92
2022/10/01 04:18:31;;;;;;;;;;;10.50;99.90;;;;;;5101954;28;20291;-92
2022/10/01 04:20:57;;;;;;;;;;;11.70;99.90;;;;;;5107438;28;19928;-93
2022/10/01 04:23:22;;;;;;;;;;;10.60;99.90;;;;;;5087228;28;20015;-91
2022/10/01 04:25:48;;;;;;;;;;;10.60;99.90;;;;;;5118832;28;20022;-91
2022/10/01 04:28:14;;;;;;;;;;;10.60;99.90;;;;;;5103113;28;19955;-91
2022/10/01 04:30:43;;;;;;;;;;;10.60;99.90;;;;;;5144271;27;19971;-90
2022/10/01 04:33:12;;;;;;;;;;;10.60;99.90;;;;;;5119614;27;19924;-90
2022/10/01 04:35:38;;;;;;;;;;;10.60;99.90;;;;;;5102088;28;19974;-90
2022/10/01 04:38:07;;;;;;;;;;;10.60;99.90;;;;;;5115859;28;19925;-90
2022/10/01 04:40:34;;;;;;;;;;;10.60;99.90;;;;;;5094069;28;19924;-93
2022/10/01 04:43:00;;;;;;;;;;;10.60;99.90;;;;;;5097311;28;19986;-91
2022/10/01 04:45:25;;;;;;;;;;;10.60;99.90;;;;;;5114846;28;19924;-90
2022/10/01 04:47:54;;;;;;;;;;;10.70;99.90;;;;;;5090783;28;19924;-93
2022/10/01 04:50:21;;;;;;;;;;;10.70;99.90;;;;;;5130972;27;19935;-91
2022/10/01 04:52:47;;;;;;;;;;;10.70;99.90;;;;;;5096043;28;19935;-92
2022/10/01 04:55:13;;;;;;;;;;;10.70;99.90;;;;;;5107216;28;19971;-91
2022/10/01 04:57:39;;;;;;;;;;;10.70;99.90;;;;;;5110937;28;19931;-91
2022/10/01 05:00:05;;;;;;;;;;;10.70;99.90;;;;;;5097317;28;19924;-92
2022/10/01 05:02:33;;;;;;;;;;;10.80;99.90;;;;;;5114303;27;19923;-90
2022/10/01 05:05:07;;;;;;;;;;;10.80;99.90;;;;;;5122482;27;19924;-90
2022/10/01 05:07:34;;;;;;;;;;;10.80;99.90;;;;;;5117854;28;20369;-91
2022/10/01 05:10:00;;;;;;;;;;;10.80;99.90;;;;;;5110016;28;19924;-91
2022/10/01 05:12:26;;;;;;;;;;;10.80;99.90;;;;;;5083040;28;20020;-91
2022/10/01 05:14:52;;;;;;;;;;;10.90;99.90;;;;;;5127543;27;19931;-90
2022/10/01 05:17:18;;;;;;;;;;;10.90;99.90;;;;;;5106148;28;19924;-91
2022/10/01 05:19:44;;;;;;;;;;;10.90;99.90;;;;;;5097011;28;19923;-91
2022/10/01 05:22:10;;;;;;;;;;;10.90;99.90;;;;;;5095149;28;19946;-90
2022/10/01 05:24:36;;;;;;;;;;;10.80;99.90;;;;;;5105195;28;19924;-93
2022/10/01 05:27:01;;;;;;;;;;;10.80;99.90;;;;;;5086229;28;19930;-92
2022/10/01 05:29:27;;;;;;;;;;;10.90;99.90;;;;;;5090177;28;19934;-91
2022/10/01 05:31:52;;;;;;;;;;;10.90;99.90;;;;;;5119657;28;19923;-91
2022/10/01 05:34:18;;;;;;;;;;;10.90;99.90;;;;;;5115730;28;19938;-90
2022/10/01 05:36:44;;;;;;;;;;;10.90;99.90;;;;;;5095528;28;19924;-91
2022/10/01 05:39:10;;;;;;;;;;;10.90;99.90;;;;;;5108351;28;19928;-91
2022/10/01 05:41:37;;;;;;;;;;;10.90;99.90;;;;;;5088772;28;19987;-90
2022/10/01 05:44:02;;;;;;;;;;;11.00;99.90;;;;;;5096725;28;20000;-91
2022/10/01 05:46:28;;;;;;;;;;;11.00;99.90;;;;;;5088263;28;19930;-91
2022/10/01 05:48:53;;;;;;;;;;;11.00;99.90;;;;;;5099476;28;19979;-85
2022/10/01 05:51:19;;;;;;;;;;;11.00;99.90;;;;;;5108597;28;19931;-86
2022/10/01 05:53:47;;;;;;;;;;;11.00;99.90;;;;;;5101094;28;19924;-85
2022/10/01 05:56:13;;;;;;;;;;;11.00;99.90;;;;;;5083969;28;19925;-85
2022/10/01 05:58:39;;;;;;;;;;;11.10;99.90;;;;;;5102894;28;19947;-86
2022/10/01 06:01:05;;;;;;;;;;;11.10;99.90;;;;;;5102407;28;19999;-85
2022/10/01 06:03:30;;;;;;;;;;;11.00;99.90;;;;;;5103707;28;19953;-86
2022/10/01 06:05:56;;;;;;;;;;;11.10;99.90;;;;;;5117943;28;19928;-85
2022/10/01 06:08:22;;;;;;;;;;;11.10;99.90;;;;;;5132294;27;19927;-85
2022/10/01 06:10:48;;;;;;;;;;;11.10;99.90;;;;;;5134076;27;19924;-87
2022/10/01 06:13:16;;;;;;;;;;;11.20;99.90;;;;;;5103122;28;20395;-85
2022/10/01 06:15:42;;;;;;;;;;;11.20;99.90;;;;;;5102367;28;19927;-86
2022/10/01 06:18:09;;;;;;;;;;;11.20;99.90;;;;;;5120401;28;19924;-86
2022/10/01 06:20:35;;;;;;;;;;;11.20;99.90;;;;;;5103803;28;19923;-84
2022/10/01 06:23:00;;;;;;;;;;;11.20;99.90;;;;;;5124942;27;20786;-85
2022/10/01 06:25:28;;;;;;;;;;;11.30;99.90;;;;;;5096172;28;19927;-86
2022/10/01 06:27:56;;;;;;;;;;;11.30;99.90;;;;;;5105344;28;20386;-86
2022/10/01 06:30:30;;;;;;;;;;;11.30;99.90;;;;;;5125948;28;19920;-85
2022/10/01 06:33:03;;;;;;;;;;;11.30;99.90;;;;;;5091420;28;19954;-83
2022/10/01 06:35:29;;;;;;;;;;;11.40;99.90;;;;;;5121366;27;19927;-86
2022/10/01 06:37:55;;;;;;;;;;;11.40;99.90;;;;;;5148600;27;19924;-85
2022/10/01 06:40:20;;;;;;;;;;;11.50;99.90;;;;;;5126850;27;19924;-87
2022/10/01 06:42:46;;;;;;;;;;;11.50;99.90;;;;;;5118842;28;19972;-86
2022/10/01 06:45:12;;;;;;;;;;;11.60;99.90;;;;;;5115124;28;19932;-86
2022/10/01 06:47:37;;;;;;;;;;;11.60;99.90;;;;;;5093770;28;19928;-85
2022/10/01 06:50:03;;;;;;;;;;;11.60;99.90;;;;;;5120042;28;20014;-84
2022/10/01 06:55:33;;;;;;;;;;;11.70;99.90;;;;;;5131678;27;19924;-85
2022/10/01 06:58:16;;;;;;;;;;;11.70;99.90;;;;;;5142964;27;19947;-85
2022/10/01 07:00:42;;;;;;;;;;;11.70;99.90;;;;;;5100301;28;19959;-86
2022/10/01 07:03:11;;;;;;;;;;;11.70;99.90;;;;;;5101751;28;20034;-85
2022/10/01 07:05:37;;;;;;;;;;;11.80;99.90;;;;;;5118487;28;20142;-84
2022/10/01 07:08:03;;;;;;;;;;;11.90;99.90;;;;;;5095014;28;20497;-86
2022/10/01 07:10:28;;;;;;;;;;;11.90;99.90;;;;;;5092541;28;19976;-84
2022/10/01 07:12:54;;;;;;;;;;;11.90;99.90;;;;;;5080336;28;19950;-85
2022/10/01 07:15:24;;;;;;;;;;;12.00;99.90;;;;;;5095663;28;19924;-84
2022/10/01 07:17:51;;;;;;;;;;;12.10;99.90;;;;;;5117534;28;19974;-85
2022/10/01 07:20:18;;;;;;;;;;;12.10;99.90;;;;;;5098146;28;20366;-85
2022/10/01 07:22:44;;;;;;;;;;;12.10;99.90;;;;;;5147943;27;19923;-86
2022/10/01 07:25:09;;;;;;;;;;;12.20;99.90;;;;;;5127120;27;20050;-85
2022/10/01 07:27:35;;;;;;;;;;;12.20;99.90;;;;;;5127204;27;19924;-85
2022/10/01 07:30:01;;;;;;;;;;;12.20;99.90;;;;;;5128578;27;19928;-86
2022/10/01 07:32:26;;;;;;;;;;;12.30;99.90;;;;;;5117134;28;19928;-85
2022/10/01 07:34:52;;;;;;;;;;;12.30;99.90;;;;;;5128369;27;19931;-85
2022/10/01 07:37:17;;;;;;;;;;;12.30;99.90;;;;;;5103723;28;19931;-84
2022/10/01 07:39:43;;;;;;;;;;;12.20;99.90;;;;;;5105592;28;19931;-85
2022/10/01 07:42:09;;;;;;;;;;;12.20;99.90;;;;;;5133108;27;19924;-86
2022/10/01 07:44:34;;;;;;;;;;;12.10;99.90;;;;;;5135386;27;20280;-86
2022/10/01 07:47:00;;;;;;;;;;;12.20;99.90;;;;;;5082672;28;19924;-85
2022/10/01 07:49:26;;;;;;;;;;;12.10;99.90;;;;;;5095430;28;20477;-86
2022/10/01 07:51:53;;;;;;;;;;;12.20;99.90;;;;;;5100903;28;19931;-86
2022/10/01 07:54:20;;;;;;;;;;;12.20;99.90;;;;;;5147254;27;19924;-85
2022/10/01 07:56:47;;;;;;;;;;;12.30;99.90;;;;;;5110661;28;20280;-86
2022/10/01 07:59:12;;;;;;;;;;;12.30;99.90;;;;;;5112000;28;19963;-85
2022/10/01 08:01:38;;;;;;;;;;;12.40;99.90;;;;;;5115018;28;19924;-87
2022/10/01 08:05:16;;;;;;;;;;;12.50;99.90;;;;;;5134106;27;19930;-85
2022/10/01 08:06:50;;;;;;;;;;;12.60;99.90;;;;;;5117814;28;19924;-84
2022/10/01 08:09:16;;;;;;;;;;;13.80;99.90;;;;;;5134542;27;19946;-86
2022/10/01 08:11:41;;;;;;;;;;;12.70;99.90;;;;;;5096961;28;19924;-86
2022/10/01 08:14:07;;;;;;;;;;;12.70;99.90;;;;;;5117009;27;19923;-84
2022/10/01 08:16:33;;;;;;;;;;;12.80;99.90;;;;;;5117564;28;19924;-85
2022/10/01 08:18:59;;;;;;;;;;;12.90;99.90;;;;;;5082496;28;19924;-85
2022/10/01 08:21:27;;;;;;;;;;;12.90;99.90;;;;;;5123360;27;19967;-86
2022/10/01 08:23:52;;;;;;;;;;;13.00;99.90;;;;;;5117029;28;19924;-85
2022/10/01 08:26:18;;;;;;;;;;;13.00;99.90;;;;;;5116440;28;19924;-86
2022/10/01 08:28:43;;;;;;;;;;;13.10;99.90;;;;;;5100684;28;19931;-86
2022/10/01 08:31:09;;;;;;;;;;;13.20;99.90;;;;;;5092321;28;19924;-85
2022/10/01 08:33:36;;;;;;;;;;;13.20;99.90;;;;;;5081710;28;19924;-84
2022/10/01 08:36:02;;;;;;;;;;;13.20;99.90;;;;;;5126112;27;19935;-86
2022/10/01 08:38:28;;;;;;;;;;;13.20;99.90;;;;;;5121708;27;20007;-85
2022/10/01 08:40:54;;;;;;;;;;;13.40;99.90;;;;;;5096647;28;20304;-86
2022/10/01 08:43:28;;;;;;;;;;;13.50;99.90;;;;;;5111828;28;19924;-87
2022/10/01 08:45:57;;;;;;;;;;;13.60;99.90;;;;;;5101863;28;19931;-86
2022/10/01 08:48:22;;;;;;;;;;;13.80;99.90;;;;;;5133946;27;19924;-85
2022/10/01 08:50:48;;;;;;;;;;;13.80;99.90;;;;;;5126074;27;19924;-85
2022/10/01 08:53:17;;;;;;;;;;;13.90;99.90;;;;;;5118316;28;19924;-86
2022/10/01 08:55:43;;;;;;;;;;;14.10;99.90;;;;;;5132382;27;19953;-86
2022/10/01 08:58:10;;;;;;;;;;;14.30;99.90;;;;;;5094582;28;20294;-86
2022/10/01 09:00:39;;;;;;;;;;;14.30;99.90;;;;;;5114158;28;19987;-86
2022/10/01 09:03:05;;;;;;;;;;;14.50;99.90;;;;;;5093428;28;19924;-87
2022/10/01 09:05:46;;;;;;;;;;;14.60;99.90;;;;;;5133881;27;20022;-85
2022/10/01 09:08:15;;;;;;;;;;;14.80;99.90;;;;;;5133316;27;19954;-85
2022/10/01 09:11:01;;;;;;;;;;;14.80;99.90;;;;;;5085701;28;19927;-86
2022/10/01 09:13:42;;;;;;;;;;;14.80;99.90;;;;;;5105661;28;21825;-87
2022/10/01 09:16:11;;;;;;;;;;;14.80;99.90;;;;;;5122846;28;19928;-86
2022/10/01 09:18:43;;;;;;;;;;;14.80;99.90;;;;;;5106534;28;19948;-86
2022/10/01 09:21:46;;;;;;;;;;;14.80;99.90;;;;;;5102269;28;19924;-86
2022/10/01 09:24:14;;;;;;;;;;;14.90;99.90;;;;;;5035493;28;19935;-86
2022/10/01 09:26:42;;;;;;;;;;;14.90;99.90;;;;;;5105192;28;19924;-87
2022/10/01 09:29:12;;;;;;;;;;;14.90;99.90;;;;;;5121113;28;19924;-87
2022/10/01 09:31:46;;;;;;;;;;;14.90;99.90;;;;;;5135029;28;19923;-86
2022/10/01 09:34:17;;;;;;;;;;;14.90;99.90;;;;;;5101841;28;19928;-87
2022/10/01 09:36:55;;;;;;;;;;;14.80;99.90;;;;;;5102644;28;19934;-87
2022/10/01 09:39:53;;;;;;;;;;;14.70;99.90;;;;;;5131956;28;19971;-88
2022/10/01 09:42:21;;;;;;;;;;;14.70;99.90;;;;;;5066675;28;20478;-88
2022/10/01 09:44:47;;;;;;;;;;;14.70;99.90;;;;;;5119599;28;20279;-88
2022/10/01 09:47:16;;;;;;;;;;;14.70;99.90;;;;;;5086056;28;19924;-88
2022/10/01 09:49:43;;;;;;;;;;;15.00;99.90;;;;;;5099076;28;19924;-88
2022/10/01 09:52:12;;;;;;;;;;;15.20;99.90;;;;;;5112163;28;19923;-89
2022/10/01 09:54:41;;;;;;;;;;;15.40;99.90;;;;;;5123446;28;19935;-88
2022/10/01 09:57:17;;;;;;;;;;;15.40;99.90;;;;;;5126285;28;19963;-88
2022/10/01 09:59:52;;;;;;;;;;;15.50;99.90;;;;;;5124573;28;19924;-86
2022/10/01 10:02:30;;;;;;;;;;;15.50;99.90;;;;;;5141477;27;19923;-87
2022/10/01 10:05:07;;;;;;;;;;;15.30;99.90;;;;;;5099806;28;19924;-88
2022/10/01 10:07:33;;;;;;;;;;;15.10;99.90;;;;;;5103436;28;19923;-86
2022/10/01 10:10:11;;;;;;;;;;;14.90;99.90;;;;;;5117615;28;19969;-85
2022/10/01 10:12:36;;;;;;;;;;;14.70;99.90;;;;;;5098622;28;19942;-85
2022/10/01 10:15:07;;;;;;;;;;;14.50;99.90;;;;;;5104306;28;19927;-85
2022/10/01 10:17:36;;;;;;;;;;;14.30;99.90;;;;;;5094815;28;19979;-85
2022/10/01 10:20:09;;;;;;;;;;;13.90;99.90;;;;;;5121224;28;19928;-86
2022/10/01 10:22:35;;;;;;;;;;;13.60;99.90;;;;;;5104986;28;21927;-87
2022/10/01 10:25:10;;;;;;;;;;;13.10;99.90;;;;;;5082342;28;20323;-86
2022/10/01 10:27:35;;;;;;;;;;;12.60;99.90;;;;;;5122062;28;19932;-86
2022/10/01 10:30:14;;;;;;;;;;;12.40;99.90;;;;;;5136098;27;19969;-85
2022/10/01 10:32:41;;;;;;;;;;;12.20;99.90;;;;;;5120610;28;19971;-85
2022/10/01 10:35:09;;;;;;;;;;;12.10;99.90;;;;;;5094490;28;19936;-85
2022/10/01 10:37:35;;;;;;;;;;;12.10;99.90;;;;;;5099791;28;19939;-85
2022/10/01 10:40:03;;;;;;;;;;;12.10;99.90;;;;;;5136298;27;19979;-85
2022/10/01 10:42:29;;;;;;;;;;;12.30;99.90;;;;;;5121320;28;19930;-86
2022/10/01 10:44:55;;;;;;;;;;;12.60;99.90;;;;;;5119492;28;19963;-86
2022/10/01 10:47:22;;;;;;;;;;;12.90;99.90;;;;;;5136513;27;19924;-86
2022/10/01 10:49:50;;;;;;;;;;;13.10;99.90;;;;;;5095386;28;19930;-86
2022/10/01 10:52:36;;;;;;;;;;;13.20;99.90;;;;;;5113157;28;19945;-86
2022/10/01 10:55:21;;;;;;;;;;;13.20;99.90;;;;;;5119388;28;19924;-86
2022/10/01 10:57:47;;;;;;;;;;;13.50;99.90;;;;;;5117905;28;20056;-86
2022/10/01 11:00:17;;;;;;;;;;;13.70;99.90;;;;;;5120564;28;20212;-85
2022/10/01 11:02:52;;;;;;;;;;;13.80;99.90;;;;;;5114879;28;19946;-86
2022/10/01 11:05:20;;;;;;;;;;;13.80;99.90;;;;;;5157253;27;19971;-85
2022/10/01 11:07:46;;;;;;;;;;;13.70;99.90;;;;;;5095800;28;19924;-85
2022/10/01 11:10:29;;;;;;;;;;;13.70;99.90;;;;;;5119871;28;19924;-85
2022/10/01 11:12:56;;;;;;;;;;;13.60;99.90;;;;;;5119769;28;19931;-84
2022/10/01 11:15:34;;;;;;;;;;;13.50;99.90;;;;;;5114450;28;19924;-85
2022/10/01 11:17:59;;;;;;;;;;;13.60;99.90;;;;;;5133487;27;19924;-85
2022/10/01 11:20:33;;;;;;;;;;;13.60;99.90;;;;;;5130124;27;19946;-86
2022/10/01 11:23:01;;;;;;;;;;;13.70;99.90;;;;;;5115120;28;19924;-84
2022/10/01 11:25:33;;;;;;;;;;;13.70;99.90;;;;;;5088760;28;19932;-85
2022/10/01 11:28:11;;;;;;;;;;;13.80;99.90;;;;;;5117782;28;19962;-85
2022/10/01 11:30:43;;;;;;;;;;;14.00;99.90;;;;;;5097514;28;19928;-85
2022/10/01 11:33:17;;;;;;;;;;;14.10;99.90;;;;;;5102978;28;19930;-85
2022/10/01 11:35:50;;;;;;;;;;;14.30;99.90;;;;;;5134469;27;19924;-85
2022/10/01 11:38:28;;;;;;;;;;;14.40;99.90;;;;;;5120897;28;19953;-85
2022/10/01 11:40:57;;;;;;;;;;;14.60;99.90;;;;;;5102790;28;19923;-85
2022/10/01 11:43:22;;;;;;;;;;;14.80;99.90;;;;;;5102718;28;19945;-87
2022/10/01 11:45:50;;;;;;;;;;;15.00;99.90;;;;;;5101534;28;19924;-86
2022/10/01 11:48:22;;;;;;;;;;;15.10;99.90;;;;;;5120683;28;19987;-86
2022/10/01 11:50:50;;;;;;;;;;;15.10;99.90;;;;;;5132071;27;20037;-86
2022/10/01 11:53:20;;;;;;;;;;;15.30;99.90;;;;;;5119723;28;19923;-85
2022/10/01 11:58:52;;;;;;;;;;;15.30;99.90;;;;;;5150389;27;20260;-86
2022/10/01 12:01:27;;;;;;;;;;;15.30;99.90;;;;;;5129120;27;19945;-86
2022/10/01 12:03:53;;;;;;;;;;;15.40;99.90;;;;;;5130296;27;19979;-85
2022/10/01 12:06:31;;;;;;;;;;;15.40;99.90;;;;;;5132223;27;19931;-85
2022/10/01 12:09:01;;;;;;;;;;;15.40;99.90;;;;;;5121169;28;19928;-85
2022/10/01 12:11:39;;;;;;;;;;;15.40;99.90;;;;;;5129492;28;19976;-86
2022/10/01 12:14:09;;;;;;;;;;;15.40;99.90;;;;;;5109028;28;20472;-86
2022/10/01 12:16:49;;;;;;;;;;;15.40;99.90;;;;;;5105326;28;19924;-85
2022/10/01 12:19:26;;;;;;;;;;;15.40;99.90;;;;;;5112097;28;19924;-87
2022/10/01 12:22:01;;;;;;;;;;;15.30;99.90;;;;;;5117146;28;19930;-86
2022/10/01 12:24:34;;;;;;;;;;;15.40;99.90;;;;;;5096235;28;19939;-87
2022/10/01 12:27:18;;;;;;;;;;;15.40;99.90;;;;;;5125965;27;19924;-87
2022/10/01 12:29:49;;;;;;;;;;;15.40;99.90;;;;;;5119802;28;19924;-86
2022/10/01 12:32:51;;;;;;;;;;;15.50;99.90;;;;;;5150388;27;19931;-86
2022/10/01 12:35:35;;;;;;;;;;;15.70;99.90;;;;;;5060148;28;20310;-86
2022/10/01 12:38:09;;;;;;;;;;;16.00;99.90;;;;;;5109816;28;19931;-87
2022/10/01 12:40:44;;;;;;;;;;;16.20;99.90;;;;;;5101695;28;19930;-87
2022/10/01 12:43:26;;;;;;;;;;;16.20;99.90;;;;;;5127794;27;19945;-87
2022/10/01 12:46:01;;;;;;;;;;;16.20;99.90;;;;;;5114780;28;19981;-87
2022/10/01 12:48:30;;;;;;;;;;;16.70;99.90;;;;;;5101313;28;19990;-87
2022/10/01 12:50:59;;;;;;;;;;;16.20;99.90;;;;;;5098725;28;19932;-87
2022/10/01 12:53:25;;;;;;;;;;;16.30;99.90;;;;;;5118164;28;19923;-88
2022/10/01 12:55:56;;;;;;;;;;;16.40;99.90;;;;;;5126550;27;19995;-86
2022/10/01 12:58:42;;;;;;;;;;;16.50;99.90;;;;;;5125771;27;19928;-86
2022/10/01 13:01:11;;;;;;;;;;;16.70;99.90;;;;;;5143322;27;19991;-88
2022/10/01 13:03:39;;;;;;;;;;;16.80;99.90;;;;;;5117579;28;19991;-88
2022/10/01 13:06:19;;;;;;;;;;;16.80;99.90;;;;;;5098881;28;19938;-88
2022/10/01 13:09:00;;;;;;;;;;;16.70;99.90;;;;;;5118396;28;19931;-90
2022/10/01 13:11:37;;;;;;;;;;;16.30;99.90;;;;;;5132368;27;20393;-89
2022/10/01 13:14:06;;;;;;;;;;;15.90;99.90;;;;;;5099361;28;19975;-87
2022/10/01 13:16:32;;;;;;;;;;;15.50;99.90;;;;;;5095499;28;19934;-90
2022/10/01 13:19:04;;;;;;;;;;;15.10;99.90;;;;;;5122072;27;19924;-91
2022/10/01 13:21:48;;;;;;;;;;;14.80;99.90;;;;;;5148440;27;19919;-88
2022/10/01 13:24:28;;;;;;;;;;;14.60;99.90;;;;;;5130945;28;19946;-90
2022/10/01 13:27:07;;;;;;;;;;;14.40;99.90;;;;;;5087463;28;19946;-88
2022/10/01 13:29:36;;;;;;;;;;;14.40;99.90;;;;;;5115988;28;19924;-88
2022/10/01 13:32:03;;;;;;;;;;;14.40;99.90;;;;;;5115420;28;19924;-89
2022/10/01 13:34:35;;;;;;;;;;;14.50;99.90;;;;;;5125505;28;19974;-90
2022/10/01 13:37:11;;;;;;;;;;;14.70;99.90;;;;;;5106540;28;19924;-89
2022/10/01 13:39:40;;;;;;;;;;;14.80;99.90;;;;;;5133735;28;19936;-89
2022/10/01 13:42:11;;;;;;;;;;;15.00;99.90;;;;;;5101008;28;19924;-89
2022/10/01 13:44:39;;;;;;;;;;;15.20;99.90;;;;;;5111345;28;19967;-89
2022/10/01 13:47:06;;;;;;;;;;;15.50;99.90;;;;;;5084276;28;19930;-89
2022/10/01 13:49:33;;;;;;;;;;;15.60;99.90;;;;;;5104847;28;19931;-88
2022/10/01 13:51:58;;;;;;;;;;;15.50;99.90;;;;;;5101391;28;19931;-89
2022/10/01 13:54:27;;;;;;;;;;;15.30;99.90;;;;;;5104343;28;19923;-89
2022/10/01 13:56:52;;;;;;;;;;;15.30;99.90;;;;;;5121660;28;19969;-88
2022/10/01 13:59:32;;;;;;;;;;;15.10;99.90;;;;;;5133502;27;19924;-88
2022/10/01 14:01:58;;;;;;;;;;;15.00;99.90;;;;;;5131333;27;19924;-89
2022/10/01 14:04:39;;;;;;;;;;;14.80;99.90;;;;;;5121568;28;19931;-88
2022/10/01 14:07:12;;;;;;;;;;;14.70;99.90;;;;;;5114420;28;19928;-87
2022/10/01 14:09:47;;;;;;;;;;;14.50;99.90;;;;;;5129197;27;19931;-88
2022/10/01 14:17:48;;;;;;;;;;;13.90;99.90;;;;;;5147837;27;20399;-88
2022/10/01 14:20:19;;;;;;;;;;;13.80;99.90;;;;;;5131920;27;20000;-87
2022/10/01 14:22:44;;;;;;;;;;;13.70;99.90;;;;;;5136827;27;19969;-87
2022/10/01 14:25:21;;;;;;;;;;;13.70;99.90;;;;;;5136662;27;19924;-87
2022/10/01 14:28:09;;;;;;;;;;;13.60;99.90;;;;;;5122343;28;19949;-87
2022/10/01 14:30:35;;;;;;;;;;;13.60;99.90;;;;;;5119045;28;19951;-87
2022/10/01 14:33:04;;;;;;;;;;;13.60;99.90;;;;;;5125413;28;19931;-86
2022/10/01 14:35:33;;;;;;;;;;;13.50;99.90;;;;;;5098129;28;19957;-87
2022/10/01 14:38:00;;;;;;;;;;;13.50;99.90;;;;;;5100323;27;19931;-87
2022/10/01 14:40:33;;;;;;;;;;;13.50;99.90;;;;;;5121853;28;19924;-87